Time;durP1;ratioP1;P1;durP2;ratioP2;P2;SDS_P1;SDS_P2;PMS_P1;PMS_P2;Temp;Humidity;BMP_temperature;BMP_pressure;BME280_temperature;BME280_humidity;BME280_pressure;Samples;Min_cycle;Max_cycle;Signal;HPM_P1;HPM_P2
2021/11/24 00:00:07;;;;;;;58.77;19.70;;;;;;;;;;5052952;28;20706;-80
2021/11/24 00:02:33;;;;;;;63.00;21.50;;;;;;;;;;5051775;28;20519;-79
2021/11/24 00:05:00;;;;;;;63.72;20.70;;;;;;;;;;5053243;28;20564;-80
2021/11/24 00:07:26;;;;;;;79.85;23.63;;;;;;;;;;5051965;28;20210;-78
2021/11/24 00:09:52;;;;;;;62.83;22.50;;;;;;;;;;5052775;28;20821;-79
2021/11/24 00:12:18;;;;;;;68.03;21.97;;;;;;;;;;5051895;28;20444;-80
2021/11/24 00:14:44;;;;;;;73.43;20.47;;;;;;;;;;5052977;28;20409;-79
2021/11/24 00:17:10;;;;;;;74.60;22.87;;;;;;;;;;5053228;28;20440;-81
2021/11/24 00:19:36;;;;;;;73.33;23.40;;;;;;;;;;5052741;28;20415;-79
2021/11/24 00:22:05;;;;;;;77.30;22.77;;;;;;;;;;5053352;28;20795;-82
2021/11/24 00:24:31;;;;;;;99.13;24.80;;;;;;;;;;5052893;28;20209;-81
2021/11/24 00:26:57;;;;;;;90.00;28.10;;;;;;;;;;5052904;28;20515;-80
2021/11/24 00:29:23;;;;;;;96.65;28.02;;;;;;;;;;5052697;28;21053;-80
2021/11/24 00:31:49;;;;;;;93.27;27.67;;;;;;;;;;5052890;28;20235;-80
2021/11/24 00:34:15;;;;;;;85.30;26.80;;;;;;;;;;5053103;28;20924;-80
2021/11/24 00:36:41;;;;;;;118.77;29.87;;;;;;;;;;5035348;28;20184;-78
2021/11/24 00:39:07;;;;;;;95.90;30.50;;;;;;;;;;5053036;28;20415;-79
2021/11/24 00:41:33;;;;;;;103.45;31.30;;;;;;;;;;5054870;28;21007;-79
2021/11/24 00:43:59;;;;;;;112.72;32.03;;;;;;;;;;5055888;28;20619;-79
2021/11/24 00:46:25;;;;;;;115.75;31.48;;;;;;;;;;5057140;28;20531;-79
2021/11/24 00:48:51;;;;;;;111.50;33.80;;;;;;;;;;5056767;28;20185;-81
2021/11/24 00:51:17;;;;;;;89.40;30.60;;;;;;;;;;5056524;28;20501;-78
2021/11/24 00:53:43;;;;;;;122.50;34.07;;;;;;;;;;5056890;28;20446;-79
2021/11/24 00:56:09;;;;;;;114.43;32.87;;;;;;;;;;5056873;28;20419;-81
2021/11/24 00:58:35;;;;;;;101.85;30.40;;;;;;;;;;5056682;28;20770;-79
2021/11/24 01:01:01;;;;;;;98.65;27.10;;;;;;;;;;5056161;28;20209;-80
2021/11/24 01:03:27;;;;;;;91.60;30.08;;;;;;;;;;5056524;28;20247;-80
2021/11/24 01:05:53;;;;;;;67.30;25.83;;;;;;;;;;5055353;28;20195;-79
2021/11/24 01:08:19;;;;;;;66.97;28.05;;;;;;;;;;5056527;28;20210;-81
2021/11/24 01:10:45;;;;;;;74.33;29.03;;;;;;;;;;5054843;28;20289;-79
2021/11/24 01:13:12;;;;;;;71.93;27.58;;;;;;;;;;5056206;28;20768;-79
2021/11/24 01:15:38;;;;;;;73.88;28.00;;;;;;;;;;5056467;28;20179;-81
2021/11/24 01:18:04;;;;;;;79.70;27.00;;;;;;;;;;5056417;28;20228;-80
2021/11/24 01:20:31;;;;;;;63.85;25.70;;;;;;;;;;5055988;28;20197;-79
2021/11/24 01:22:57;;;;;;;76.20;27.63;;;;;;;;;;5054896;28;20206;-79
2021/11/24 01:25:23;;;;;;;86.30;27.58;;;;;;;;;;5056510;28;20235;-82
2021/11/24 01:27:50;;;;;;;70.25;27.60;;;;;;;;;;5056298;28;20174;-81
2021/11/24 01:30:16;;;;;;;79.70;27.95;;;;;;;;;;5055905;28;20531;-81
2021/11/24 01:32:42;;;;;;;72.22;26.85;;;;;;;;;;5056301;28;20235;-80
2021/11/24 01:35:09;;;;;;;62.70;25.35;;;;;;;;;;5056280;28;20183;-81
2021/11/24 01:37:36;;;;;;;77.45;28.48;;;;;;;;;;5056125;28;20923;-80
2021/11/24 01:40:04;;;;;;;63.65;26.38;;;;;;;;;;5055644;28;20207;-81
2021/11/24 01:42:30;;;;;;;71.38;26.80;;;;;;;;;;5055837;28;20538;-80
2021/11/24 01:44:56;;;;;;;56.22;24.35;;;;;;;;;;5055973;28;20182;-81
2021/11/24 01:47:22;;;;;;;59.53;24.85;;;;;;;;;;5055901;28;20177;-81
2021/11/24 01:49:48;;;;;;;61.97;27.23;;;;;;;;;;5054088;28;20181;-79
2021/11/24 01:52:15;;;;;;;75.80;28.45;;;;;;;;;;5055109;28;20242;-81
2021/11/24 01:54:41;;;;;;;64.90;27.10;;;;;;;;;;5054470;28;20642;-79
2021/11/24 01:57:07;;;;;;;60.50;25.30;;;;;;;;;;5055780;28;20179;-81
2021/11/24 01:59:33;;;;;;;60.90;26.40;;;;;;;;;;5053579;28;20186;-81
2021/11/24 02:01:59;;;;;;;64.70;25.63;;;;;;;;;;5055683;28;20534;-80
2021/11/24 02:04:26;;;;;;;60.47;25.95;;;;;;;;;;5055532;28;20464;-81
2021/11/24 02:06:52;;;;;;;49.03;24.10;;;;;;;;;;5054162;28;20239;-82
2021/11/24 02:09:19;;;;;;;55.50;23.30;;;;;;;;;;5055205;28;20173;-78
2021/11/24 02:11:45;;;;;;;69.32;26.70;;;;;;;;;;5055123;28;20189;-78
2021/11/24 02:14:12;;;;;;;62.58;25.20;;;;;;;;;;5055460;28;20180;-80
2021/11/24 02:16:45;;;;;;;51.85;24.20;;;;;;;;;;5055233;28;20185;-79
2021/11/24 02:19:11;;;;;;;57.10;27.15;;;;;;;;;;5053629;28;20178;-78
2021/11/24 02:21:37;;;;;;;52.17;23.77;;;;;;;;;;5055037;28;20555;-80
2021/11/24 02:24:04;;;;;;;53.97;24.00;;;;;;;;;;5055176;28;20458;-80
2021/11/24 02:26:30;;;;;;;53.63;24.30;;;;;;;;;;5055200;28;20177;-81
2021/11/24 02:28:56;;;;;;;47.00;21.93;;;;;;;;;;5055091;28;20182;-81
2021/11/24 02:31:23;;;;;;;56.15;23.10;;;;;;;;;;5054819;28;20741;-80
2021/11/24 02:33:54;;;;;;;55.70;24.00;;;;;;;;;;5054983;28;20177;-79
2021/11/24 02:36:20;;;;;;;49.20;23.95;;;;;;;;;;5054994;28;20181;-80
2021/11/24 02:38:46;;;;;;;45.55;21.95;;;;;;;;;;5054870;28;20187;-82
2021/11/24 02:41:12;;;;;;;43.28;22.77;;;;;;;;;;5054548;28;20194;-80
2021/11/24 02:43:38;;;;;;;49.03;23.25;;;;;;;;;;5054854;28;20205;-80
2021/11/24 02:46:04;;;;;;;52.05;21.48;;;;;;;;;;5054954;28;20181;-81
2021/11/24 02:48:30;;;;;;;49.00;22.58;;;;;;;;;;5053784;28;20185;-79
2021/11/24 02:50:57;;;;;;;53.58;23.27;;;;;;;;;;5054277;28;20655;-81
2021/11/24 02:53:29;;;;;;;45.85;22.20;;;;;;;;;;5054897;28;20231;-79
2021/11/24 02:55:56;;;;;;;52.80;23.70;;;;;;;;;;5054714;28;20184;-80
2021/11/24 02:58:22;;;;;;;52.75;23.80;;;;;;;;;;5054700;28;20174;-81
2021/11/24 03:00:48;;;;;;;44.60;22.80;;;;;;;;;;5054140;28;20765;-79
2021/11/24 03:03:14;;;;;;;42.95;22.83;;;;;;;;;;5054407;28;20202;-81
2021/11/24 03:05:41;;;;;;;40.70;21.17;;;;;;;;;;5054220;28;20260;-80
2021/11/24 03:08:07;;;;;;;43.25;22.80;;;;;;;;;;5053008;28;20174;-79
2021/11/24 03:10:34;;;;;;;53.22;25.63;;;;;;;;;;5053952;28;20605;-81
2021/11/24 03:13:00;;;;;;;49.33;22.77;;;;;;;;;;5053020;28;20178;-81
2021/11/24 03:15:26;;;;;;;50.83;23.33;;;;;;;;;;5054216;28;20180;-80
2021/11/24 03:17:52;;;;;;;50.38;25.35;;;;;;;;;;5054106;28;20327;-81
2021/11/24 03:20:18;;;;;;;56.33;26.90;;;;;;;;;;5053483;28;20275;-82
2021/11/24 03:22:44;;;;;;;46.47;22.65;;;;;;;;;;5052826;28;20457;-82
2021/11/24 03:25:11;;;;;;;42.63;23.20;;;;;;;;;;5054100;28;20170;-81
2021/11/24 03:27:39;;;;;;;57.60;24.33;;;;;;;;;;5054082;28;20173;-81
2021/11/24 03:30:08;;;;;;;52.83;23.75;;;;;;;;;;5053414;28;20556;-81
2021/11/24 03:32:34;;;;;;;47.25;24.42;;;;;;;;;;5054033;28;20177;-81
2021/11/24 03:35:00;;;;;;;54.92;25.10;;;;;;;;;;5053844;28;20185;-79
2021/11/24 03:37:26;;;;;;;48.15;24.20;;;;;;;;;;5053787;28;20257;-81
2021/11/24 03:39:52;;;;;;;49.60;25.33;;;;;;;;;;5053404;28;20175;-79
2021/11/24 03:42:18;;;;;;;48.72;23.33;;;;;;;;;;5053690;28;20171;-81
2021/11/24 03:44:45;;;;;;;45.83;26.42;;;;;;;;;;5053778;28;20657;-80
2021/11/24 03:47:11;;;;;;;51.92;24.92;;;;;;;;;;5053775;28;20268;-82
2021/11/24 03:49:37;;;;;;;49.80;25.85;;;;;;;;;;5053153;28;20169;-81
2021/11/24 03:52:04;;;;;;;43.35;23.25;;;;;;;;;;5052260;28;20545;-81
2021/11/24 03:54:30;;;;;;;48.30;22.90;;;;;;;;;;5053393;28;20193;-80
2021/11/24 03:56:56;;;;;;;48.65;23.65;;;;;;;;;;5053574;28;20243;-81
2021/11/24 03:59:22;;;;;;;47.17;24.30;;;;;;;;;;5052118;28;20540;-82
2021/11/24 04:01:48;;;;;;;40.88;22.90;;;;;;;;;;5053268;28;20431;-79
2021/11/24 04:04:14;;;;;;;48.70;23.20;;;;;;;;;;5053302;28;20211;-81
2021/11/24 04:06:40;;;;;;;40.35;22.17;;;;;;;;;;5053224;28;20406;-80
2021/11/24 04:09:06;;;;;;;46.72;22.77;;;;;;;;;;5053361;28;20192;-80
2021/11/24 04:11:32;;;;;;;41.80;23.23;;;;;;;;;;5051713;28;20234;-81
2021/11/24 04:13:58;;;;;;;41.92;22.00;;;;;;;;;;5053388;28;20638;-80
2021/11/24 04:16:24;;;;;;;44.17;22.92;;;;;;;;;;5052486;28;20194;-79
2021/11/24 04:18:50;;;;;;;44.58;23.98;;;;;;;;;;5051837;28;20224;-81
2021/11/24 04:21:19;;;;;;;46.50;22.83;;;;;;;;;;5051748;28;20193;-81
2021/11/24 04:23:45;;;;;;;51.42;23.65;;;;;;;;;;5053199;28;20254;-79
2021/11/24 04:26:11;;;;;;;46.38;23.45;;;;;;;;;;5053349;28;20232;-80
2021/11/24 04:28:38;;;;;;;47.17;23.70;;;;;;;;;;5052859;28;20178;-79
2021/11/24 04:31:06;;;;;;;48.30;23.27;;;;;;;;;;5052518;28;20224;-81
2021/11/24 04:33:33;;;;;;;40.65;23.08;;;;;;;;;;5053004;28;20264;-79
2021/11/24 04:35:59;;;;;;;44.05;23.48;;;;;;;;;;5052017;28;20185;-80
2021/11/24 04:38:25;;;;;;;46.33;21.27;;;;;;;;;;5052988;28;20174;-78
2021/11/24 04:40:51;;;;;;;45.33;23.45;;;;;;;;;;5052471;28;20212;-79
2021/11/24 04:43:22;;;;;;;50.08;24.52;;;;;;;;;;5052866;28;20196;-80
2021/11/24 04:45:49;;;;;;;48.15;24.58;;;;;;;;;;5052932;28;20239;-79
2021/11/24 04:48:15;;;;;;;45.33;23.85;;;;;;;;;;5053029;28;20183;-79
2021/11/24 04:50:41;;;;;;;47.17;23.88;;;;;;;;;;5052365;28;20219;-79
2021/11/24 04:53:07;;;;;;;43.35;24.05;;;;;;;;;;5053265;28;20178;-78
2021/11/24 04:55:33;;;;;;;45.92;25.52;;;;;;;;;;5051715;28;20182;-80
2021/11/24 04:58:00;;;;;;;52.20;24.40;;;;;;;;;;5052933;28;20286;-79
2021/11/24 05:00:26;;;;;;;47.88;23.50;;;;;;;;;;5052324;28;20471;-78
2021/11/24 05:02:52;;;;;;;55.28;25.25;;;;;;;;;;5051311;28;20200;-81
2021/11/24 05:05:20;;;;;;;43.13;24.77;;;;;;;;;;5052659;28;20204;-79
2021/11/24 05:07:46;;;;;;;44.20;22.63;;;;;;;;;;5052613;28;20303;-79
2021/11/24 05:10:12;;;;;;;38.85;23.02;;;;;;;;;;5051262;28;20194;-79
2021/11/24 05:12:38;;;;;;;51.22;26.33;;;;;;;;;;5052417;28;20175;-80
2021/11/24 05:15:05;;;;;;;47.03;23.30;;;;;;;;;;5052392;28;20203;-79
2021/11/24 05:17:33;;;;;;;44.30;24.63;;;;;;;;;;5052520;28;20205;-83
2021/11/24 05:19:59;;;;;;;43.42;23.00;;;;;;;;;;5052260;28;20192;-80
2021/11/24 05:22:26;;;;;;;42.53;24.67;;;;;;;;;;5052556;28;20171;-81
2021/11/24 05:24:52;;;;;;;43.72;23.40;;;;;;;;;;5052505;28;20174;-79
2021/11/24 05:27:19;;;;;;;46.15;23.73;;;;;;;;;;5052538;28;20205;-79
2021/11/24 05:29:45;;;;;;;47.10;21.60;;;;;;;;;;5055865;28;20174;-80
2021/11/24 05:32:11;;;;;;;42.38;22.42;;;;;;;;;;5056422;28;20178;-81
2021/11/24 05:34:37;;;;;;;52.20;22.30;;;;;;;;;;5055987;28;20663;-79
2021/11/24 05:37:03;;;;;;;44.00;24.35;;;;;;;;;;5055728;28;20213;-79
2021/11/24 05:39:29;;;;;;;46.28;24.00;;;;;;;;;;5054738;28;20205;-80
2021/11/24 05:41:55;;;;;;;48.83;25.92;;;;;;;;;;5056052;28;20647;-78
2021/11/24 05:44:26;;;;;;;54.03;27.25;;;;;;;;;;5056051;28;20205;-80
2021/11/24 05:46:56;;;;;;;50.65;25.00;;;;;;;;;;5055599;28;20179;-80
2021/11/24 05:49:25;;;;;;;53.20;24.42;;;;;;;;;;5054369;28;20677;-79
2021/11/24 05:51:51;;;;;;;43.90;23.50;;;;;;;;;;5053980;28;20210;-79
2021/11/24 05:54:35;;;;;;;45.55;23.15;;;;;;;;;;5055737;28;20180;-79
2021/11/24 05:57:03;;;;;;;46.63;23.17;;;;;;;;;;5054440;28;20226;-78
2021/11/24 05:59:32;;;;;;;50.17;23.58;;;;;;;;;;5055194;28;20186;-78
2021/11/24 06:01:58;;;;;;;46.97;25.55;;;;;;;;;;5055532;28;20179;-81
2021/11/24 06:04:24;;;;;;;44.27;21.50;;;;;;;;;;5054250;28;20206;-81
2021/11/24 06:06:50;;;;;;;49.87;23.90;;;;;;;;;;5054350;28;20419;-79
2021/11/24 06:09:19;;;;;;;49.43;23.03;;;;;;;;;;5054937;28;20447;-79
2021/11/24 06:11:52;;;;;;;41.88;22.27;;;;;;;;;;5055349;28;20436;-80
2021/11/24 06:14:18;;;;;;;47.00;23.30;;;;;;;;;;5055543;28;20174;-79
2021/11/24 06:16:44;;;;;;;54.50;25.27;;;;;;;;;;5055238;28;20190;-79
2021/11/24 06:19:10;;;;;;;40.10;23.17;;;;;;;;;;5055098;28;20231;-79
2021/11/24 06:21:35;;;;;;;42.77;23.67;;;;;;;;;;5053667;28;20688;-81
2021/11/24 06:24:01;;;;;;;47.03;24.07;;;;;;;;;;5054252;28;20467;-81
2021/11/24 06:26:28;;;;;;;48.25;25.65;;;;;;;;;;5055397;28;20430;-80
2021/11/24 06:28:53;;;;;;;42.67;24.88;;;;;;;;;;5055326;28;20173;-79
2021/11/24 06:31:22;;;;;;;48.30;25.90;;;;;;;;;;5054926;28;20546;-78
2021/11/24 06:33:51;;;;;;;40.38;22.75;;;;;;;;;;5055147;28;20415;-79
2021/11/24 06:36:34;;;;;;;;;;;;;;;;;;;;;
2021/11/24 06:39:00;;;;;;;41.70;23.33;;;;;;;;;;5053319;28;20192;-79
2021/11/24 06:41:26;;;;;;;41.77;23.13;;;;;;;;;;5054342;28;20293;-79
2021/11/24 06:43:52;;;;;;;41.67;23.20;;;;;;;;;;5054670;28;20462;-80
2021/11/24 06:46:18;;;;;;;43.53;24.10;;;;;;;;;;5054874;28;20419;-79
2021/11/24 06:48:44;;;;;;;48.83;24.00;;;;;;;;;;5054566;28;20200;-80
2021/11/24 06:51:10;;;;;;;41.87;22.87;;;;;;;;;;5054429;28;20433;-79
2021/11/24 06:53:36;;;;;;;47.65;23.95;;;;;;;;;;5054673;28;20468;-79
2021/11/24 06:56:02;;;;;;;47.43;24.03;;;;;;;;;;5036989;28;20190;-79
2021/11/24 06:58:31;;;;;;;50.15;24.98;;;;;;;;;;5054449;28;20421;-80
2021/11/24 07:01:00;;;;;;;47.95;25.48;;;;;;;;;;5053998;28;20280;-81
2021/11/24 07:03:29;;;;;;;48.72;25.50;;;;;;;;;;5054295;28;20233;-79
2021/11/24 07:05:55;;;;;;;54.58;26.35;;;;;;;;;;5054229;28;20226;-80
2021/11/24 07:08:21;;;;;;;44.80;25.20;;;;;;;;;;5054302;28;20176;-80
2021/11/24 07:10:47;;;;;;;43.67;24.92;;;;;;;;;;5053988;28;20688;-79
2021/11/24 07:13:13;;;;;;;49.65;25.48;;;;;;;;;;5052740;28;20172;-79
2021/11/24 07:15:39;;;;;;;42.70;24.63;;;;;;;;;;5053943;28;20188;-80
2021/11/24 07:18:08;;;;;;;52.77;25.27;;;;;;;;;;5054014;28;20650;-81
2021/11/24 07:20:34;;;;;;;51.83;26.02;;;;;;;;;;5052609;28;20877;-79
2021/11/24 07:23:01;;;;;;;57.08;27.13;;;;;;;;;;5054433;28;20197;-79
2021/11/24 07:25:29;;;;;;;46.42;24.75;;;;;;;;;;5054259;28;20167;-79
2021/11/24 07:27:55;;;;;;;49.40;26.33;;;;;;;;;;5054013;28;20183;-79
2021/11/24 07:30:22;;;;;;;47.67;26.13;;;;;;;;;;5053715;28;20658;-79
2021/11/24 07:32:48;;;;;;;43.42;22.52;;;;;;;;;;5053911;28;20583;-80
2021/11/24 07:35:14;;;;;;;56.47;26.35;;;;;;;;;;5052751;28;20178;-78
2021/11/24 07:37:40;;;;;;;50.72;26.23;;;;;;;;;;5052544;28;20210;-78
2021/11/24 07:40:08;;;;;;;49.13;27.65;;;;;;;;;;5053267;28;20200;-79
2021/11/24 07:42:34;;;;;;;44.88;24.35;;;;;;;;;;5053691;28;20510;-78
2021/11/24 07:45:00;;;;;;;45.05;24.02;;;;;;;;;;5052457;28;20176;-79
2021/11/24 07:47:27;;;;;;;39.88;20.92;;;;;;;;;;5053844;28;20235;-79
2021/11/24 07:49:53;;;;;;;42.00;22.95;;;;;;;;;;5052874;28;20202;-80
2021/11/24 07:52:19;;;;;;;43.13;25.42;;;;;;;;;;5053155;28;20169;-80
2021/11/24 07:54:45;;;;;;;44.17;24.20;;;;;;;;;;5053525;28;20211;-79
2021/11/24 07:57:11;;;;;;;40.17;22.35;;;;;;;;;;5053688;28;20590;-78
2021/11/24 07:59:37;;;;;;;49.20;25.38;;;;;;;;;;5053185;28;20545;-78
2021/11/24 08:02:04;;;;;;;43.63;24.65;;;;;;;;;;5053286;28;20174;-81
2021/11/24 08:04:30;;;;;;;39.92;24.67;;;;;;;;;;5053869;28;20612;-78
2021/11/24 08:07:02;;;;;;;46.60;24.63;;;;;;;;;;5052210;28;20255;-78
2021/11/24 08:09:27;;;;;;;41.28;23.40;;;;;;;;;;5053135;28;20165;-78
2021/11/24 08:11:54;;;;;;;47.23;24.60;;;;;;;;;;5051978;28;20200;-80
2021/11/24 08:14:20;;;;;;;41.88;24.95;;;;;;;;;;5053167;28;20415;-80
2021/11/24 08:16:46;;;;;;;37.70;22.33;;;;;;;;;;5051880;28;20208;-78
2021/11/24 08:19:12;;;;;;;52.75;26.45;;;;;;;;;;5052849;28;20181;-81
2021/11/24 08:21:38;;;;;;;46.47;24.45;;;;;;;;;;5053043;28;20202;-78
2021/11/24 08:24:04;;;;;;;45.78;24.30;;;;;;;;;;5052984;28;20225;-80
2021/11/24 08:26:30;;;;;;;49.55;25.52;;;;;;;;;;5053013;28;20544;-81
2021/11/24 08:28:57;;;;;;;49.95;23.23;;;;;;;;;;5052925;28;20173;-80
2021/11/24 08:31:23;;;;;;;47.03;25.02;;;;;;;;;;5052643;28;20200;-80
2021/11/24 08:33:49;;;;;;;45.80;24.05;;;;;;;;;;5053288;28;20177;-80
2021/11/24 08:36:15;;;;;;;47.78;22.92;;;;;;;;;;5052900;28;20178;-79
2021/11/24 08:38:42;;;;;;;41.88;23.00;;;;;;;;;;5051560;28;20179;-81
2021/11/24 08:41:11;;;;;;;47.28;22.65;;;;;;;;;;5052441;28;20673;-79
2021/11/24 08:43:37;;;;;;;38.13;21.45;;;;;;;;;;5052920;28;20208;-78
2021/11/24 08:46:03;;;;;;;42.33;24.50;;;;;;;;;;5052997;28;20182;-78
2021/11/24 08:48:29;;;;;;;46.47;22.80;;;;;;;;;;5052959;28;20177;-80
2021/11/24 08:50:55;;;;;;;49.13;25.50;;;;;;;;;;5052736;28;20552;-80
2021/11/24 08:53:22;;;;;;;40.60;23.83;;;;;;;;;;5052825;28;20582;-80
2021/11/24 08:55:48;;;;;;;44.67;24.17;;;;;;;;;;5052801;28;20184;-80
2021/11/24 08:58:14;;;;;;;41.45;22.58;;;;;;;;;;5052752;28;20597;-78
2021/11/24 09:00:41;;;;;;;41.85;22.52;;;;;;;;;;5052368;28;20292;-78
2021/11/24 09:03:09;;;;;;;45.80;23.80;;;;;;;;;;5054446;28;20690;-80
2021/11/24 09:05:35;;;;;;;35.50;21.77;;;;;;;;;;5056814;28;20178;-81
2021/11/24 09:08:01;;;;;;;35.63;20.50;;;;;;;;;;5056697;28;20169;-78
2021/11/24 09:10:27;;;;;;;35.40;20.38;;;;;;;;;;5056064;28;20445;-79
2021/11/24 09:12:54;;;;;;;34.65;19.77;;;;;;;;;;5056472;28;20181;-78
2021/11/24 09:15:20;;;;;;;32.90;19.35;;;;;;;;;;5056517;28;20177;-79
2021/11/24 09:17:46;;;;;;;31.50;20.45;;;;;;;;;;5056406;28;20197;-79
2021/11/24 09:20:13;;;;;;;33.67;19.15;;;;;;;;;;5056055;28;20204;-79
2021/11/24 09:22:42;;;;;;;30.27;19.92;;;;;;;;;;5056148;28;20269;-78
2021/11/24 09:25:11;;;;;;;31.38;18.02;;;;;;;;;;5056183;28;20543;-79
2021/11/24 09:27:58;;;;;;;29.95;18.63;;;;;;;;;;5056233;28;20224;-79
2021/11/24 09:30:24;;;;;;;27.00;17.75;;;;;;;;;;5055928;28;20202;-81
2021/11/24 09:32:50;;;;;;;28.45;18.58;;;;;;;;;;5055039;28;20182;-78
2021/11/24 09:35:16;;;;;;;28.02;17.30;;;;;;;;;;5056271;28;20551;-78
2021/11/24 09:37:42;;;;;;;30.08;18.25;;;;;;;;;;5056189;28;20523;-80
2021/11/24 09:40:09;;;;;;;30.60;18.53;;;;;;;;;;5055711;28;20285;-77
2021/11/24 09:42:36;;;;;;;33.05;18.77;;;;;;;;;;5056012;28;20473;-79
2021/11/24 09:45:03;;;;;;;33.63;20.83;;;;;;;;;;5055901;28;20524;-80
2021/11/24 09:51:00;;;;;;;;;;;;;;;;;;;;;
2021/11/24 09:53:28;;;;;;;42.92;22.48;;;;;;;;;;5002980;28;20198;-79
2021/11/24 09:55:54;;;;;;;34.63;19.95;;;;;;;;;;5052101;28;20611;-78
2021/11/24 09:58:20;;;;;;;29.73;18.75;;;;;;;;;;5055712;28;20264;-80
2021/11/24 10:00:46;;;;;;;32.00;19.52;;;;;;;;;;5055353;28;20201;-78
2021/11/24 10:03:15;;;;;;;34.08;20.60;;;;;;;;;;5055500;28;20236;-78
2021/11/24 10:05:41;;;;;;;30.42;18.35;;;;;;;;;;5055623;28;20170;-79
2021/11/24 10:08:07;;;;;;;28.52;18.60;;;;;;;;;;5055447;28;20281;-79
2021/11/24 10:10:34;;;;;;;31.02;19.35;;;;;;;;;;5053909;28;20263;-78
2021/11/24 10:13:00;;;;;;;33.13;20.13;;;;;;;;;;5053676;28;20180;-80
2021/11/24 10:15:41;;;;;;;32.28;18.58;;;;;;;;;;5054871;28;20181;-81
2021/11/24 10:18:10;;;;;;;34.78;19.88;;;;;;;;;;5055324;28;20212;-81
2021/11/24 10:20:43;;;;;;;31.30;17.55;;;;;;;;;;5053621;28;20201;-79
2021/11/24 10:23:42;;;;;;;31.10;18.13;;;;;;;;;;5055082;28;20189;-79
2021/11/24 10:26:17;;;;;;;30.23;18.92;;;;;;;;;;5043086;28;20193;-80
2021/11/24 10:28:51;;;;;;;31.50;18.50;;;;;;;;;;5055235;28;20172;-77
2021/11/24 10:31:43;;;;;;;32.38;19.55;;;;;;;;;;5054957;28;20280;-79
2021/11/24 10:34:23;;;;;;;38.83;19.88;;;;;;;;;;5053965;28;20200;-79
2021/11/24 10:37:16;;;;;;;31.17;19.77;;;;;;;;;;5055326;28;20245;-80
2021/11/24 10:39:45;;;;;;;36.95;19.75;;;;;;;;;;5054940;28;20558;-81
2021/11/24 10:42:24;;;;;;;33.22;19.60;;;;;;;;;;5055140;28;20185;-80
2021/11/24 10:44:54;;;;;;;29.00;18.90;;;;;;;;;;5055025;28;20197;-79
2021/11/24 10:47:21;;;;;;;25.80;17.27;;;;;;;;;;5054895;28;20193;-80
2021/11/24 10:49:54;;;;;;;31.13;18.77;;;;;;;;;;5054630;28;20669;-78
2021/11/24 10:52:20;;;;;;;30.75;18.70;;;;;;;;;;5054783;28;20174;-80
2021/11/24 10:55:11;;;;;;;32.28;19.73;;;;;;;;;;5054748;28;20173;-79
2021/11/24 10:57:38;;;;;;;28.52;17.58;;;;;;;;;;5048925;28;20702;-78
2021/11/24 11:00:12;;;;;;;27.15;17.30;;;;;;;;;;5054326;28;20205;-80
2021/11/24 11:02:44;;;;;;;26.45;15.93;;;;;;;;;;5054602;28;20212;-80
2021/11/24 11:05:14;;;;;;;28.33;18.25;;;;;;;;;;5054668;28;20626;-80
2021/11/24 11:07:49;;;;;;;38.60;26.42;;;;;;;;;;5054381;28;20182;-79
2021/11/24 11:10:20;;;;;;;28.77;18.33;;;;;;;;;;5053982;28;20193;-78
2021/11/24 11:12:47;;;;;;;28.38;15.70;;;;;;;;;;5054346;28;20176;-80
2021/11/24 11:15:19;;;;;;;32.83;18.58;;;;;;;;;;5054295;28;20173;-80
2021/11/24 11:17:49;;;;;;;32.33;18.80;;;;;;;;;;5052654;28;20192;-78
2021/11/24 11:20:15;;;;;;;29.17;15.65;;;;;;;;;;5053751;28;20189;-78
2021/11/24 11:22:42;;;;;;;31.55;18.77;;;;;;;;;;5054057;28;20169;-78
2021/11/24 11:25:08;;;;;;;32.47;18.42;;;;;;;;;;5054225;28;20189;-79
2021/11/24 11:27:34;;;;;;;28.38;17.30;;;;;;;;;;5052532;28;20181;-78
2021/11/24 11:30:00;;;;;;;29.38;17.38;;;;;;;;;;5053645;28;20206;-79
2021/11/24 11:32:29;;;;;;;30.30;17.17;;;;;;;;;;5053856;28;20184;-80
2021/11/24 11:34:55;;;;;;;27.33;17.50;;;;;;;;;;5052945;28;20227;-80
2021/11/24 11:37:23;;;;;;;20.10;12.98;;;;;;;;;;5054026;28;20208;-79
2021/11/24 11:39:49;;;;;;;22.80;12.70;;;;;;;;;;5053416;28;20178;-79
2021/11/24 11:42:16;;;;;;;16.30;11.30;;;;;;;;;;5053728;28;20182;-79
2021/11/24 11:44:43;;;;;;;12.90;7.80;;;;;;;;;;5053554;28;20202;-80
2021/11/24 11:47:09;;;;;;;12.70;6.90;;;;;;;;;;5053911;28;20215;-80
2021/11/24 11:49:38;;;;;;;14.90;8.32;;;;;;;;;;5053489;28;20173;-78
2021/11/24 11:52:09;;;;;;;10.93;6.95;;;;;;;;;;5052352;28;20177;-79
2021/11/24 11:54:35;;;;;;;11.05;6.45;;;;;;;;;;5053823;28;20247;-78
2021/11/24 11:57:04;;;;;;;7.05;5.38;;;;;;;;;;5053446;28;20182;-80
2021/11/24 11:59:35;;;;;;;8.77;6.10;;;;;;;;;;5053173;28;20185;-80
2021/11/24 12:02:04;;;;;;;9.85;7.05;;;;;;;;;;5053298;28;20536;-80
2021/11/24 12:04:31;;;;;;;8.43;5.00;;;;;;;;;;5053483;28;20202;-80
2021/11/24 12:06:57;;;;;;;9.77;6.00;;;;;;;;;;5053478;28;20547;-79
2021/11/24 12:09:30;;;;;;;9.10;5.87;;;;;;;;;;5052923;28;20173;-79
2021/11/24 12:14:42;;;;;;;7.68;5.85;;;;;;;;;;5053462;28;20784;-78
2021/11/24 12:17:26;;;;;;;7.00;5.15;;;;;;;;;;5051884;28;20235;-80
2021/11/24 12:19:52;;;;;;;8.48;5.85;;;;;;;;;;5052552;28;20238;-79
2021/11/24 12:22:38;;;;;;;5.50;3.40;;;;;;;;;;5053119;28;20257;-80
2021/11/24 12:25:04;;;;;;;5.90;4.90;;;;;;;;;;5052988;28;20411;-79
2021/11/24 12:27:49;;;;;;;7.18;5.10;;;;;;;;;;5053130;28;20592;-79
2021/11/24 12:30:15;;;;;;;5.25;4.30;;;;;;;;;;5051229;28;20296;-80
2021/11/24 12:32:41;;;;;;;5.80;3.87;;;;;;;;;;5053110;28;20267;-79
2021/11/24 12:35:16;;;;;;;4.35;3.25;;;;;;;;;;5051893;28;20408;-77
2021/11/24 12:37:42;;;;;;;5.05;3.80;;;;;;;;;;5052657;28;20175;-78
2021/11/24 12:40:11;;;;;;;6.25;3.83;;;;;;;;;;5052529;28;20596;-78
2021/11/24 12:42:37;;;;;;;7.10;4.70;;;;;;;;;;5053235;28;20179;-79
2021/11/24 12:45:04;;;;;;;5.35;4.00;;;;;;;;;;5052941;28;20318;-78
2021/11/24 12:47:30;;;;;;;7.55;4.93;;;;;;;;;;5053074;28;20579;-79
2021/11/24 12:50:06;;;;;;;7.10;5.30;;;;;;;;;;5052264;28;20279;-79
2021/11/24 12:52:32;;;;;;;10.60;6.20;;;;;;;;;;5052961;28;20191;-77
2021/11/24 12:55:05;;;;;;;8.00;5.70;;;;;;;;;;5052859;28;20712;-79
2021/11/24 12:57:31;;;;;;;11.90;6.38;;;;;;;;;;5052913;28;20173;-80
2021/11/24 12:59:56;;;;;;;8.60;4.95;;;;;;;;;;5052418;28;20197;-80
2021/11/24 13:02:22;;;;;;;9.00;5.10;;;;;;;;;;5052599;28;20587;-80
2021/11/24 13:04:49;;;;;;;7.70;5.50;;;;;;;;;;5052583;28;20469;-80
2021/11/24 13:07:16;;;;;;;5.00;3.45;;;;;;;;;;5052969;28;20422;-80
2021/11/24 13:09:43;;;;;;;5.60;3.63;;;;;;;;;;5052409;28;20194;-78
2021/11/24 13:12:14;;;;;;;5.45;2.78;;;;;;;;;;5052536;28;20174;-77
2021/11/24 13:14:44;;;;;;;5.43;3.20;;;;;;;;;;5051201;28;20189;-78
2021/11/24 13:17:19;;;;;;;4.60;2.78;;;;;;;;;;5052470;28;20189;-78
2021/11/24 13:19:46;;;;;;;3.42;2.45;;;;;;;;;;5052095;28;20259;-78
2021/11/24 13:22:14;;;;;;;4.85;3.10;;;;;;;;;;5052350;28;20219;-81
2021/11/24 13:24:42;;;;;;;3.67;2.47;;;;;;;;;;5052259;28;20212;-81
2021/11/24 13:27:08;;;;;;;4.07;2.50;;;;;;;;;;5052516;28;20173;-78
2021/11/24 13:29:36;;;;;;;3.38;2.47;;;;;;;;;;5052128;28;20177;-79
2021/11/24 13:32:10;;;;;;;3.15;2.50;;;;;;;;;;5051387;28;20301;-80
2021/11/24 13:34:36;;;;;;;3.05;2.65;;;;;;;;;;5052518;28;20180;-81
2021/11/24 13:37:03;;;;;;;4.32;2.83;;;;;;;;;;5052455;28;20174;-80
2021/11/24 13:39:29;;;;;;;3.65;2.20;;;;;;;;;;5050892;28;20184;-80
2021/11/24 13:42:09;;;;;;;2.95;2.33;;;;;;;;;;5052583;28;20257;-81
2021/11/24 13:44:45;;;;;;;3.08;2.58;;;;;;;;;;5052169;28;20193;-81
2021/11/24 13:47:11;;;;;;;3.47;2.50;;;;;;;;;;5052470;28;20165;-78
2021/11/24 13:49:42;;;;;;;2.37;2.17;;;;;;;;;;5053813;28;20181;-78
2021/11/24 13:52:12;;;;;;;4.03;2.03;;;;;;;;;;5055912;28;20400;-79
2021/11/24 13:54:42;;;;;;;3.20;2.25;;;;;;;;;;5055946;28;20178;-80
2021/11/24 13:57:10;;;;;;;4.00;2.30;;;;;;;;;;5054722;28;20177;-79
2021/11/24 13:59:37;;;;;;;2.53;1.88;;;;;;;;;;5054321;28;20192;-78
2021/11/24 14:02:22;;;;;;;3.05;2.17;;;;;;;;;;5055870;28;20184;-77
2021/11/24 14:04:56;;;;;;;3.92;2.22;;;;;;;;;;5055508;28;20200;-79
2021/11/24 14:07:26;;;;;;;3.45;2.65;;;;;;;;;;5055689;28;20162;-79
2021/11/24 14:09:56;;;;;;;8.73;2.50;;;;;;;;;;5055300;28;20200;-78
2021/11/24 14:12:30;;;;;;;3.45;2.67;;;;;;;;;;5055487;28;20170;-78
2021/11/24 14:15:01;;;;;;;3.30;2.60;;;;;;;;;;5053935;28;20196;-77
2021/11/24 14:17:38;;;;;;;3.83;2.20;;;;;;;;;;5055202;28;20246;-78
2021/11/24 14:20:06;;;;;;;3.53;2.35;;;;;;;;;;5054917;28;20191;-78
2021/11/24 14:22:35;;;;;;;3.00;2.20;;;;;;;;;;5055275;28;20181;-78
2021/11/24 14:25:01;;;;;;;2.55;2.20;;;;;;;;;;5054873;28;20205;-78
2021/11/24 14:27:27;;;;;;;2.97;1.92;;;;;;;;;;5037422;28;20227;-77
2021/11/24 14:29:53;;;;;;;2.38;1.92;;;;;;;;;;5054785;28;20266;-78
2021/11/24 14:32:19;;;;;;;2.33;1.90;;;;;;;;;;5053959;28;20185;-78